sensor_id;sensor_type;location;lat;lon;timestamp;temperature;humidity
41884;DHT22;27566;50.930;5.328;2023-07-09T00:02:23;25.30;64.10
41884;DHT22;27566;50.930;5.328;2023-07-09T00:04:49;25.30;63.90
41884;DHT22;27566;50.930;5.328;2023-07-09T00:07:35;25.30;63.80
41884;DHT22;27566;50.930;5.328;2023-07-09T00:10:01;25.30;64.00
41884;DHT22;27566;50.930;5.328;2023-07-09T00:12:30;25.30;63.70
41884;DHT22;27566;50.930;5.328;2023-07-09T00:14:56;25.20;63.80
41884;DHT22;27566;50.930;5.328;2023-07-09T00:17:31;25.20;63.80
41884;DHT22;27566;50.930;5.328;2023-07-09T00:19:59;25.20;63.60
41884;DHT22;27566;50.930;5.328;2023-07-09T00:22:24;25.20;63.70
41884;DHT22;27566;50.930;5.328;2023-07-09T00:24:52;25.20;64.00
41884;DHT22;27566;50.930;5.328;2023-07-09T00:27:24;25.20;64.10
41884;DHT22;27566;50.930;5.328;2023-07-09T00:29:52;25.20;64.20
41884;DHT22;27566;50.930;5.328;2023-07-09T00:32:19;25.20;64.40
41884;DHT22;27566;50.930;5.328;2023-07-09T00:34:49;25.10;64.50
41884;DHT22;27566;50.930;5.328;2023-07-09T00:37:21;25.10;64.70
41884;DHT22;27566;50.930;5.328;2023-07-09T00:39:51;25.10;64.70
41884;DHT22;27566;50.930;5.328;2023-07-09T00:42:21;25.10;64.80
41884;DHT22;27566;50.930;5.328;2023-07-09T00:44:53;25.10;64.80
41884;DHT22;27566;50.930;5.328;2023-07-09T00:50:08;25.10;65.20
41884;DHT22;27566;50.930;5.328;2023-07-09T00:52:40;25.10;65.30
41884;DHT22;27566;50.930;5.328;2023-07-09T00:55:13;25.20;65.70
41884;DHT22;27566;50.930;5.328;2023-07-09T00:57:43;25.20;65.80
41884;DHT22;27566;50.930;5.328;2023-07-09T01:00:12;25.20;65.80
41884;DHT22;27566;50.930;5.328;2023-07-09T01:02:45;25.20;65.80
41884;DHT22;27566;50.930;5.328;2023-07-09T01:05:12;25.20;65.60
41884;DHT22;27566;50.930;5.328;2023-07-09T01:07:41;25.20;65.60
41884;DHT22;27566;50.930;5.328;2023-07-09T01:10:07;25.10;65.40
41884;DHT22;27566;50.930;5.328;2023-07-09T01:12:33;25.10;65.60
41884;DHT22;27566;50.930;5.328;2023-07-09T01:14:59;25.10;65.70
41884;DHT22;27566;50.930;5.328;2023-07-09T01:17:27;25.10;66.00
41884;DHT22;27566;50.930;5.328;2023-07-09T01:19:54;25.10;66.10
41884;DHT22;27566;50.930;5.328;2023-07-09T01:22:21;25.10;66.00
41884;DHT22;27566;50.930;5.328;2023-07-09T01:24:52;25.00;66.00
41884;DHT22;27566;50.930;5.328;2023-07-09T01:27:21;25.00;65.90
41884;DHT22;27566;50.930;5.328;2023-07-09T01:29:48;25.00;65.90
41884;DHT22;27566;50.930;5.328;2023-07-09T01:32:19;25.00;66.20
41884;DHT22;27566;50.930;5.328;2023-07-09T01:34:51;24.90;66.00
41884;DHT22;27566;50.930;5.328;2023-07-09T01:37:23;24.90;66.50
41884;DHT22;27566;50.930;5.328;2023-07-09T01:39:50;24.90;66.60
41884;DHT22;27566;50.930;5.328;2023-07-09T01:42:17;24.90;66.80
41884;DHT22;27566;50.930;5.328;2023-07-09T01:44:44;24.90;67.00
41884;DHT22;27566;50.930;5.328;2023-07-09T01:47:13;24.90;67.00
41884;DHT22;27566;50.930;5.328;2023-07-09T01:49:39;24.90;67.10
41884;DHT22;27566;50.930;5.328;2023-07-09T01:52:06;24.80;67.80
41884;DHT22;27566;50.930;5.328;2023-07-09T01:54:34;24.80;67.20
41884;DHT22;27566;50.930;5.328;2023-07-09T01:57:18;24.80;67.20
41884;DHT22;27566;50.930;5.328;2023-07-09T01:59:54;24.80;67.10
41884;DHT22;27566;50.930;5.328;2023-07-09T02:02:21;24.80;67.20
41884;DHT22;27566;50.930;5.328;2023-07-09T02:04:53;24.70;67.40
41884;DHT22;27566;50.930;5.328;2023-07-09T02:07:20;24.70;67.50
41884;DHT22;27566;50.930;5.328;2023-07-09T02:09:47;24.70;67.50
41884;DHT22;27566;50.930;5.328;2023-07-09T02:12:14;24.60;67.70
41884;DHT22;27566;50.930;5.328;2023-07-09T02:16:06;24.60;67.60
41884;DHT22;27566;50.930;5.328;2023-07-09T02:18:33;24.50;67.60
41884;DHT22;27566;50.930;5.328;2023-07-09T02:20:59;24.50;67.90
41884;DHT22;27566;50.930;5.328;2023-07-09T02:23:29;24.50;67.90
41884;DHT22;27566;50.930;5.328;2023-07-09T02:25:55;24.40;67.80
41884;DHT22;27566;50.930;5.328;2023-07-09T02:28:20;24.40;67.80
41884;DHT22;27566;50.930;5.328;2023-07-09T02:30:46;24.40;67.80
41884;DHT22;27566;50.930;5.328;2023-07-09T02:33:12;24.40;67.70
41884;DHT22;27566;50.930;5.328;2023-07-09T02:35:38;24.40;67.60
41884;DHT22;27566;50.930;5.328;2023-07-09T02:38:07;24.40;67.50
41884;DHT22;27566;50.930;5.328;2023-07-09T02:40:33;24.50;67.30
41884;DHT22;27566;50.930;5.328;2023-07-09T02:42:59;24.50;67.20
41884;DHT22;27566;50.930;5.328;2023-07-09T02:45:25;24.50;67.10
41884;DHT22;27566;50.930;5.328;2023-07-09T02:47:51;24.50;66.90
41884;DHT22;27566;50.930;5.328;2023-07-09T02:50:17;24.50;66.70
41884;DHT22;27566;50.930;5.328;2023-07-09T02:52:43;24.50;66.60
41884;DHT22;27566;50.930;5.328;2023-07-09T02:55:10;24.50;66.40
41884;DHT22;27566;50.930;5.328;2023-07-09T02:57:36;24.50;66.40
41884;DHT22;27566;50.930;5.328;2023-07-09T03:00:02;24.50;66.20
41884;DHT22;27566;50.930;5.328;2023-07-09T03:02:30;24.50;66.30
41884;DHT22;27566;50.930;5.328;2023-07-09T03:04:56;24.40;66.30
41884;DHT22;27566;50.930;5.328;2023-07-09T03:07:22;24.40;66.30
41884;DHT22;27566;50.930;5.328;2023-07-09T03:09:48;24.40;66.50
41884;DHT22;27566;50.930;5.328;2023-07-09T03:12:14;24.30;66.50
41884;DHT22;27566;50.930;5.328;2023-07-09T03:14:40;24.20;66.40
41884;DHT22;27566;50.930;5.328;2023-07-09T03:17:06;24.20;66.60
41884;DHT22;27566;50.930;5.328;2023-07-09T03:19:31;24.20;66.70
41884;DHT22;27566;50.930;5.328;2023-07-09T03:21:57;24.20;66.60
41884;DHT22;27566;50.930;5.328;2023-07-09T03:24:23;24.10;66.80
41884;DHT22;27566;50.930;5.328;2023-07-09T03:26:49;24.10;66.80
41884;DHT22;27566;50.930;5.328;2023-07-09T03:29:15;24.10;66.90
41884;DHT22;27566;50.930;5.328;2023-07-09T03:31:41;24.10;67.20
41884;DHT22;27566;50.930;5.328;2023-07-09T03:34:06;24.00;67.20
41884;DHT22;27566;50.930;5.328;2023-07-09T03:36:32;24.00;67.30
41884;DHT22;27566;50.930;5.328;2023-07-09T03:38:58;24.00;67.40
41884;DHT22;27566;50.930;5.328;2023-07-09T03:41:24;24.00;67.60
41884;DHT22;27566;50.930;5.328;2023-07-09T03:43:50;24.00;67.50
41884;DHT22;27566;50.930;5.328;2023-07-09T03:46:18;24.00;67.80
41884;DHT22;27566;50.930;5.328;2023-07-09T03:48:44;24.00;67.80
41884;DHT22;27566;50.930;5.328;2023-07-09T03:51:10;24.10;67.80
41884;DHT22;27566;50.930;5.328;2023-07-09T03:53:36;24.10;67.70
41884;DHT22;27566;50.930;5.328;2023-07-09T03:56:01;24.10;67.60
41884;DHT22;27566;50.930;5.328;2023-07-09T03:58:28;24.20;67.50
41884;DHT22;27566;50.930;5.328;2023-07-09T04:00:53;24.30;67.30
41884;DHT22;27566;50.930;5.328;2023-07-09T04:03:21;24.30;67.50
41884;DHT22;27566;50.930;5.328;2023-07-09T04:05:48;24.40;66.90
41884;DHT22;27566;50.930;5.328;2023-07-09T04:08:14;24.50;66.80
41884;DHT22;27566;50.930;5.328;2023-07-09T04:10:40;24.50;66.40
41884;DHT22;27566;50.930;5.328;2023-07-09T04:13:06;24.60;66.10
41884;DHT22;27566;50.930;5.328;2023-07-09T04:15:32;24.70;65.70
41884;DHT22;27566;50.930;5.328;2023-07-09T04:17:58;24.80;65.40
41884;DHT22;27566;50.930;5.328;2023-07-09T04:20:24;24.90;64.90
41884;DHT22;27566;50.930;5.328;2023-07-09T04:22:50;25.00;64.50
41884;DHT22;27566;50.930;5.328;2023-07-09T04:25:16;25.20;64.10
41884;DHT22;27566;50.930;5.328;2023-07-09T04:27:42;25.30;63.70
41884;DHT22;27566;50.930;5.328;2023-07-09T04:30:14;25.40;63.10
41884;DHT22;27566;50.930;5.328;2023-07-09T04:32:42;25.50;62.60
41884;DHT22;27566;50.930;5.328;2023-07-09T04:35:09;25.70;62.10
41884;DHT22;27566;50.930;5.328;2023-07-09T04:37:37;26.20;61.50
41884;DHT22;27566;50.930;5.328;2023-07-09T04:40:04;26.70;60.20
41884;DHT22;27566;50.930;5.328;2023-07-09T04:42:32;27.20;58.90
41884;DHT22;27566;50.930;5.328;2023-07-09T04:44:58;27.50;57.90
41884;DHT22;27566;50.930;5.328;2023-07-09T04:47:24;27.70;57.20
41884;DHT22;27566;50.930;5.328;2023-07-09T04:49:51;28.10;56.30
41884;DHT22;27566;50.930;5.328;2023-07-09T04:52:17;28.60;55.20
41884;DHT22;27566;50.930;5.328;2023-07-09T04:54:43;29.20;53.80
41884;DHT22;27566;50.930;5.328;2023-07-09T04:57:12;29.60;52.70
41884;DHT22;27566;50.930;5.328;2023-07-09T04:59:38;29.80;51.90
41884;DHT22;27566;50.930;5.328;2023-07-09T05:02:04;30.00;51.40
41884;DHT22;27566;50.930;5.328;2023-07-09T05:04:30;30.50;50.50
41884;DHT22;27566;50.930;5.328;2023-07-09T05:06:57;31.00;49.50
41884;DHT22;27566;50.930;5.328;2023-07-09T05:09:24;31.50;48.40
41884;DHT22;27566;50.930;5.328;2023-07-09T05:11:50;32.10;47.20
41884;DHT22;27566;50.930;5.328;2023-07-09T05:14:17;32.60;46.10
41884;DHT22;27566;50.930;5.328;2023-07-09T05:16:44;33.10;45.10
41884;DHT22;27566;50.930;5.328;2023-07-09T05:19:11;33.60;44.00
41884;DHT22;27566;50.930;5.328;2023-07-09T05:21:37;34.00;43.10
41884;DHT22;27566;50.930;5.328;2023-07-09T05:24:03;34.40;42.60
41884;DHT22;27566;50.930;5.328;2023-07-09T05:26:29;34.50;41.90
41884;DHT22;27566;50.930;5.328;2023-07-09T05:28:55;34.80;41.50
41884;DHT22;27566;50.930;5.328;2023-07-09T05:31:22;35.10;40.90
41884;DHT22;27566;50.930;5.328;2023-07-09T05:33:48;35.20;40.40
41884;DHT22;27566;50.930;5.328;2023-07-09T05:36:14;35.40;40.10
41884;DHT22;27566;50.930;5.328;2023-07-09T05:38:44;36.00;39.60
41884;DHT22;27566;50.930;5.328;2023-07-09T05:41:12;36.70;38.50
41884;DHT22;27566;50.930;5.328;2023-07-09T05:43:38;37.20;37.30
41884;DHT22;27566;50.930;5.328;2023-07-09T05:46:05;37.70;36.70
41884;DHT22;27566;50.930;5.328;2023-07-09T05:48:31;38.30;35.80
41884;DHT22;27566;50.930;5.328;2023-07-09T05:50:57;38.80;35.10
41884;DHT22;27566;50.930;5.328;2023-07-09T05:53:23;39.20;34.50
41884;DHT22;27566;50.930;5.328;2023-07-09T05:55:53;39.60;33.90
41884;DHT22;27566;50.930;5.328;2023-07-09T05:58:19;39.80;33.60
41884;DHT22;27566;50.930;5.328;2023-07-09T06:00:45;40.10;33.20
41884;DHT22;27566;50.930;5.328;2023-07-09T06:03:11;40.40;33.00
41884;DHT22;27566;50.930;5.328;2023-07-09T06:05:37;40.60;32.80
41884;DHT22;27566;50.930;5.328;2023-07-09T06:08:03;40.80;32.40
41884;DHT22;27566;50.930;5.328;2023-07-09T06:10:30;41.20;32.00
41884;DHT22;27566;50.930;5.328;2023-07-09T06:12:56;41.30;31.70
41884;DHT22;27566;50.930;5.328;2023-07-09T06:15:25;41.40;31.50
41884;DHT22;27566;50.930;5.328;2023-07-09T06:17:51;41.50;31.50
41884;DHT22;27566;50.930;5.328;2023-07-09T06:20:17;41.50;31.30
41884;DHT22;27566;50.930;5.328;2023-07-09T06:22:43;41.70;31.20
41884;DHT22;27566;50.930;5.328;2023-07-09T06:25:09;41.80;31.70
41884;DHT22;27566;50.930;5.328;2023-07-09T06:27:35;41.90;30.80
41884;DHT22;27566;50.930;5.328;2023-07-09T06:30:00;42.10;30.70
41884;DHT22;27566;50.930;5.328;2023-07-09T06:32:26;42.20;30.50
41884;DHT22;27566;50.930;5.328;2023-07-09T06:34:52;42.20;30.50
41884;DHT22;27566;50.930;5.328;2023-07-09T06:37:18;42.40;30.40
41884;DHT22;27566;50.930;5.328;2023-07-09T06:39:44;42.60;30.70
41884;DHT22;27566;50.930;5.328;2023-07-09T06:42:10;42.60;29.90
41884;DHT22;27566;50.930;5.328;2023-07-09T06:44:36;42.60;30.00
41884;DHT22;27566;50.930;5.328;2023-07-09T06:47:02;42.60;30.00
41884;DHT22;27566;50.930;5.328;2023-07-09T06:49:28;42.10;30.90
41884;DHT22;27566;50.930;5.328;2023-07-09T06:51:54;41.20;31.20
41884;DHT22;27566;50.930;5.328;2023-07-09T06:54:20;40.10;32.40
41884;DHT22;27566;50.930;5.328;2023-07-09T06:56:45;39.00;33.80
41884;DHT22;27566;50.930;5.328;2023-07-09T06:59:11;38.10;35.10
41884;DHT22;27566;50.930;5.328;2023-07-09T07:01:37;37.30;36.00
41884;DHT22;27566;50.930;5.328;2023-07-09T07:04:03;36.60;37.00
41884;DHT22;27566;50.930;5.328;2023-07-09T07:06:29;36.00;38.00
41884;DHT22;27566;50.930;5.328;2023-07-09T07:08:56;35.50;38.80
41884;DHT22;27566;50.930;5.328;2023-07-09T07:11:22;35.00;39.40
41884;DHT22;27566;50.930;5.328;2023-07-09T07:13:48;34.70;40.30
41884;DHT22;27566;50.930;5.328;2023-07-09T07:16:17;34.40;40.70
41884;DHT22;27566;50.930;5.328;2023-07-09T07:18:42;34.20;41.50
41884;DHT22;27566;50.930;5.328;2023-07-09T07:21:08;34.00;41.50
41884;DHT22;27566;50.930;5.328;2023-07-09T07:23:34;33.90;41.90
41884;DHT22;27566;50.930;5.328;2023-07-09T07:26:00;33.80;42.30
41884;DHT22;27566;50.930;5.328;2023-07-09T07:28:26;33.60;42.50
41884;DHT22;27566;50.930;5.328;2023-07-09T07:31:03;33.60;43.10
41884;DHT22;27566;50.930;5.328;2023-07-09T07:33:29;33.40;43.60
41884;DHT22;27566;50.930;5.328;2023-07-09T07:35:55;33.40;43.50
41884;DHT22;27566;50.930;5.328;2023-07-09T07:38:21;33.30;43.30
41884;DHT22;27566;50.930;5.328;2023-07-09T07:40:48;33.10;43.30
41884;DHT22;27566;50.930;5.328;2023-07-09T07:43:13;33.00;43.80
41884;DHT22;27566;50.930;5.328;2023-07-09T07:45:43;33.00;44.10
41884;DHT22;27566;50.930;5.328;2023-07-09T07:48:10;32.90;44.50
41884;DHT22;27566;50.930;5.328;2023-07-09T07:50:36;32.70;44.80
41884;DHT22;27566;50.930;5.328;2023-07-09T07:53:03;32.70;45.20
41884;DHT22;27566;50.930;5.328;2023-07-09T07:55:29;32.60;45.20
41884;DHT22;27566;50.930;5.328;2023-07-09T07:57:55;32.60;45.90
41884;DHT22;27566;50.930;5.328;2023-07-09T08:00:23;32.50;46.50
41884;DHT22;27566;50.930;5.328;2023-07-09T08:02:48;32.40;46.80
41884;DHT22;27566;50.930;5.328;2023-07-09T08:05:15;32.30;47.00
41884;DHT22;27566;50.930;5.328;2023-07-09T08:07:41;32.40;47.10
41884;DHT22;27566;50.930;5.328;2023-07-09T08:10:08;32.40;46.80
41884;DHT22;27566;50.930;5.328;2023-07-09T08:12:33;32.30;47.20
41884;DHT22;27566;50.930;5.328;2023-07-09T08:14:59;32.30;47.10
41884;DHT22;27566;50.930;5.328;2023-07-09T08:17:25;32.30;47.00
41884;DHT22;27566;50.930;5.328;2023-07-09T08:19:54;32.30;47.10
41884;DHT22;27566;50.930;5.328;2023-07-09T08:22:21;32.30;47.30
41884;DHT22;27566;50.930;5.328;2023-07-09T08:24:50;32.30;47.10
41884;DHT22;27566;50.930;5.328;2023-07-09T08:27:18;32.30;46.90
41884;DHT22;27566;50.930;5.328;2023-07-09T08:29:44;32.30;46.40
41884;DHT22;27566;50.930;5.328;2023-07-09T08:32:11;32.30;46.10
41884;DHT22;27566;50.930;5.328;2023-07-09T08:34:39;32.30;46.30
41884;DHT22;27566;50.930;5.328;2023-07-09T08:37:06;32.40;46.30
41884;DHT22;27566;50.930;5.328;2023-07-09T08:39:32;32.40;46.10
41884;DHT22;27566;50.930;5.328;2023-07-09T08:42:10;32.40;45.90
41884;DHT22;27566;50.930;5.328;2023-07-09T08:48:07;32.40;45.90
41884;DHT22;27566;50.930;5.328;2023-07-09T08:50:51;32.40;45.70
41884;DHT22;27566;50.930;5.328;2023-07-09T08:53:33;32.40;45.70
41884;DHT22;27566;50.930;5.328;2023-07-09T08:56:02;32.40;45.40
41884;DHT22;27566;50.930;5.328;2023-07-09T08:58:31;32.30;45.50
41884;DHT22;27566;50.930;5.328;2023-07-09T09:01:01;32.40;45.70
41884;DHT22;27566;50.930;5.328;2023-07-09T09:05:55;32.50;45.90
41884;DHT22;27566;50.930;5.328;2023-07-09T09:08:40;32.50;46.00
41884;DHT22;27566;50.930;5.328;2023-07-09T09:11:23;32.50;45.70
41884;DHT22;27566;50.930;5.328;2023-07-09T09:13:55;32.50;45.70
41884;DHT22;27566;50.930;5.328;2023-07-09T09:16:31;32.60;45.40
41884;DHT22;27566;50.930;5.328;2023-07-09T09:18:59;32.60;45.10
41884;DHT22;27566;50.930;5.328;2023-07-09T09:24:02;32.60;45.00
41884;DHT22;27566;50.930;5.328;2023-07-09T09:26:35;32.60;44.60
41884;DHT22;27566;50.930;5.328;2023-07-09T09:29:14;32.60;44.70
41884;DHT22;27566;50.930;5.328;2023-07-09T09:31:43;32.70;44.80
41884;DHT22;27566;50.930;5.328;2023-07-09T09:34:30;32.70;44.70
41884;DHT22;27566;50.930;5.328;2023-07-09T09:36:58;32.60;44.90
41884;DHT22;27566;50.930;5.328;2023-07-09T09:39:25;32.60;44.90
41884;DHT22;27566;50.930;5.328;2023-07-09T09:41:57;32.70;45.20
41884;DHT22;27566;50.930;5.328;2023-07-09T09:44:29;32.80;44.90
41884;DHT22;27566;50.930;5.328;2023-07-09T09:46:56;32.80;44.60
41884;DHT22;27566;50.930;5.328;2023-07-09T09:49:23;32.80;44.80
41884;DHT22;27566;50.930;5.328;2023-07-09T09:51:49;32.70;44.90
41884;DHT22;27566;50.930;5.328;2023-07-09T09:54:21;32.80;45.20
41884;DHT22;27566;50.930;5.328;2023-07-09T09:56:49;32.90;45.10
41884;DHT22;27566;50.930;5.328;2023-07-09T09:59:32;32.90;45.00
41884;DHT22;27566;50.930;5.328;2023-07-09T10:02:00;32.90;45.00
41884;DHT22;27566;50.930;5.328;2023-07-09T10:04:27;32.90;44.90
41884;DHT22;27566;50.930;5.328;2023-07-09T10:07:01;32.90;45.20
41884;DHT22;27566;50.930;5.328;2023-07-09T10:15:25;33.20;45.60
41884;DHT22;27566;50.930;5.328;2023-07-09T10:18:01;33.30;45.50
41884;DHT22;27566;50.930;5.328;2023-07-09T10:20:35;33.50;45.30
41884;DHT22;27566;50.930;5.328;2023-07-09T10:34:17;33.90;44.30
41884;DHT22;27566;50.930;5.328;2023-07-09T10:39:26;34.20;43.90
41884;DHT22;27566;50.930;5.328;2023-07-09T10:41:57;34.30;43.80
41884;DHT22;27566;50.930;5.328;2023-07-09T10:44:41;34.50;44.20
41884;DHT22;27566;50.930;5.328;2023-07-09T10:47:35;34.80;43.30
41884;DHT22;27566;50.930;5.328;2023-07-09T10:50:05;35.10;42.30
41884;DHT22;27566;50.930;5.328;2023-07-09T10:52:36;35.50;42.00
41884;DHT22;27566;50.930;5.328;2023-07-09T10:55:08;35.80;41.20
41884;DHT22;27566;50.930;5.328;2023-07-09T10:57:58;36.10;41.20
41884;DHT22;27566;50.930;5.328;2023-07-09T11:00:39;36.40;40.90
41884;DHT22;27566;50.930;5.328;2023-07-09T11:05:57;37.10;39.70
41884;DHT22;27566;50.930;5.328;2023-07-09T11:08:35;37.50;38.80
41884;DHT22;27566;50.930;5.328;2023-07-09T11:11:14;37.80;38.30
41884;DHT22;27566;50.930;5.328;2023-07-09T11:13:46;38.20;37.80
41884;DHT22;27566;50.930;5.328;2023-07-09T11:16:19;38.60;37.10
41884;DHT22;27566;50.930;5.328;2023-07-09T11:18:59;38.90;36.40
41884;DHT22;27566;50.930;5.328;2023-07-09T11:21:26;39.00;36.70
41884;DHT22;27566;50.930;5.328;2023-07-09T11:23:54;39.00;36.70
41884;DHT22;27566;50.930;5.328;2023-07-09T11:26:23;39.10;36.70
41884;DHT22;27566;50.930;5.328;2023-07-09T11:28:55;39.00;37.00
41884;DHT22;27566;50.930;5.328;2023-07-09T11:31:35;38.90;36.60
41884;DHT22;27566;50.930;5.328;2023-07-09T11:34:08;38.80;36.70
41884;DHT22;27566;50.930;5.328;2023-07-09T11:36:47;38.60;36.70
41884;DHT22;27566;50.930;5.328;2023-07-09T11:42:25;38.50;37.20
41884;DHT22;27566;50.930;5.328;2023-07-09T11:45:02;38.60;37.30
41884;DHT22;27566;50.930;5.328;2023-07-09T11:47:37;38.60;38.00
41884;DHT22;27566;50.930;5.328;2023-07-09T11:50:29;38.40;37.80
41884;DHT22;27566;50.930;5.328;2023-07-09T11:53:43;38.20;37.90
41884;DHT22;27566;50.930;5.328;2023-07-09T11:55:51;37.90;38.20
41884;DHT22;27566;50.930;5.328;2023-07-09T11:58:17;37.60;38.70
41884;DHT22;27566;50.930;5.328;2023-07-09T12:00:50;37.50;39.00
41884;DHT22;27566;50.930;5.328;2023-07-09T12:03:29;37.50;38.90
41884;DHT22;27566;50.930;5.328;2023-07-09T12:06:00;37.30;39.40
41884;DHT22;27566;50.930;5.328;2023-07-09T12:08:40;36.90;39.80
41884;DHT22;27566;50.930;5.328;2023-07-09T12:11:21;36.50;40.70
41884;DHT22;27566;50.930;5.328;2023-07-09T12:13:48;36.20;41.40
41884;DHT22;27566;50.930;5.328;2023-07-09T12:16:32;36.00;41.60
41884;DHT22;27566;50.930;5.328;2023-07-09T12:18:58;35.80;41.60
41884;DHT22;27566;50.930;5.328;2023-07-09T12:21:25;35.60;41.90
41884;DHT22;27566;50.930;5.328;2023-07-09T12:23:52;35.20;42.30
41884;DHT22;27566;50.930;5.328;2023-07-09T12:26:19;34.70;43.00
41884;DHT22;27566;50.930;5.328;2023-07-09T12:28:57;34.20;44.50
41884;DHT22;27566;50.930;5.328;2023-07-09T12:31:29;33.80;44.80
41884;DHT22;27566;50.930;5.328;2023-07-09T12:33:56;33.40;45.90
41884;DHT22;27566;50.930;5.328;2023-07-09T12:36:24;33.10;46.60
41884;DHT22;27566;50.930;5.328;2023-07-09T12:39:00;32.90;47.20
41884;DHT22;27566;50.930;5.328;2023-07-09T12:41:44;32.60;47.90
41884;DHT22;27566;50.930;5.328;2023-07-09T12:44:18;32.30;48.70
41884;DHT22;27566;50.930;5.328;2023-07-09T12:46:46;32.00;49.30
41884;DHT22;27566;50.930;5.328;2023-07-09T12:49:24;31.80;49.90
41884;DHT22;27566;50.930;5.328;2023-07-09T12:51:50;31.50;50.30
41884;DHT22;27566;50.930;5.328;2023-07-09T12:54:18;31.40;50.70
41884;DHT22;27566;50.930;5.328;2023-07-09T12:56:45;31.20;50.90
41884;DHT22;27566;50.930;5.328;2023-07-09T12:59:36;31.10;51.00
41884;DHT22;27566;50.930;5.328;2023-07-09T13:02:20;30.80;51.10
41884;DHT22;27566;50.930;5.328;2023-07-09T13:04:47;30.60;51.80
41884;DHT22;27566;50.930;5.328;2023-07-09T13:07:39;30.40;53.20
41884;DHT22;27566;50.930;5.328;2023-07-09T13:10:25;30.10;53.60
41884;DHT22;27566;50.930;5.328;2023-07-09T13:12:55;29.80;54.80
41884;DHT22;27566;50.930;5.328;2023-07-09T13:15:39;29.30;57.30
41884;DHT22;27566;50.930;5.328;2023-07-09T13:18:09;28.70;58.70
41884;DHT22;27566;50.930;5.328;2023-07-09T13:20:39;28.30;60.20
41884;DHT22;27566;50.930;5.328;2023-07-09T13:25:39;27.90;61.20
41884;DHT22;27566;50.930;5.328;2023-07-09T13:28:05;27.80;61.40
41884;DHT22;27566;50.930;5.328;2023-07-09T13:30:30;27.70;61.70
41884;DHT22;27566;50.930;5.328;2023-07-09T13:32:57;27.70;62.40
41884;DHT22;27566;50.930;5.328;2023-07-09T13:35:24;27.60;62.70
41884;DHT22;27566;50.930;5.328;2023-07-09T13:37:51;27.50;62.60
41884;DHT22;27566;50.930;5.328;2023-07-09T13:40:17;27.40;62.40
41884;DHT22;27566;50.930;5.328;2023-07-09T13:42:44;27.40;62.90
41884;DHT22;27566;50.930;5.328;2023-07-09T13:45:20;27.40;62.90
41884;DHT22;27566;50.930;5.328;2023-07-09T13:47:49;27.40;62.80
41884;DHT22;27566;50.930;5.328;2023-07-09T13:50:16;27.60;62.50
41884;DHT22;27566;50.930;5.328;2023-07-09T13:52:43;27.80;61.90
41884;DHT22;27566;50.930;5.328;2023-07-09T13:55:19;28.20;60.90
41884;DHT22;27566;50.930;5.328;2023-07-09T13:57:45;28.60;59.10
41884;DHT22;27566;50.930;5.328;2023-07-09T14:00:12;29.00;57.20
41884;DHT22;27566;50.930;5.328;2023-07-09T14:02:38;29.40;56.00
41884;DHT22;27566;50.930;5.328;2023-07-09T14:05:06;29.90;55.20
41884;DHT22;27566;50.930;5.328;2023-07-09T14:07:38;30.40;53.70
41884;DHT22;27566;50.930;5.328;2023-07-09T14:10:07;30.80;52.90
41884;DHT22;27566;50.930;5.328;2023-07-09T14:12:38;31.20;51.80
41884;DHT22;27566;50.930;5.328;2023-07-09T14:15:17;31.40;51.00
41884;DHT22;27566;50.930;5.328;2023-07-09T14:17:43;31.70;50.70
41884;DHT22;27566;50.930;5.328;2023-07-09T14:20:14;32.00;49.70
41884;DHT22;27566;50.930;5.328;2023-07-09T14:22:41;32.30;48.70
41884;DHT22;27566;50.930;5.328;2023-07-09T14:25:22;32.50;48.30
41884;DHT22;27566;50.930;5.328;2023-07-09T14:27:53;32.70;47.80
41884;DHT22;27566;50.930;5.328;2023-07-09T14:30:22;32.60;46.90
41884;DHT22;27566;50.930;5.328;2023-07-09T14:32:49;32.30;47.50
41884;DHT22;27566;50.930;5.328;2023-07-09T14:35:19;32.00;48.30
41884;DHT22;27566;50.930;5.328;2023-07-09T14:37:46;31.80;48.40
41884;DHT22;27566;50.930;5.328;2023-07-09T14:40:13;31.80;48.50
41884;DHT22;27566;50.930;5.328;2023-07-09T14:42:40;32.00;48.10
41884;DHT22;27566;50.930;5.328;2023-07-09T14:45:18;32.00;47.30
41884;DHT22;27566;50.930;5.328;2023-07-09T14:47:44;31.80;47.50
41884;DHT22;27566;50.930;5.328;2023-07-09T14:50:09;31.80;47.50
41884;DHT22;27566;50.930;5.328;2023-07-09T14:52:35;31.70;48.30
41884;DHT22;27566;50.930;5.328;2023-07-09T14:55:02;31.60;49.60
41884;DHT22;27566;50.930;5.328;2023-07-09T14:57:28;31.50;48.50
41884;DHT22;27566;50.930;5.328;2023-07-09T14:59:56;31.50;48.00
41884;DHT22;27566;50.930;5.328;2023-07-09T15:02:36;31.50;47.20
41884;DHT22;27566;50.930;5.328;2023-07-09T15:05:16;31.60;47.00
41884;DHT22;27566;50.930;5.328;2023-07-09T15:07:42;31.50;47.30
41884;DHT22;27566;50.930;5.328;2023-07-09T15:10:13;31.70;47.20
41884;DHT22;27566;50.930;5.328;2023-07-09T15:12:39;32.00;45.90
41884;DHT22;27566;50.930;5.328;2023-07-09T15:17:31;32.50;44.80
41884;DHT22;27566;50.930;5.328;2023-07-09T15:19:57;32.60;45.10
41884;DHT22;27566;50.930;5.328;2023-07-09T15:22:30;32.80;45.10
41884;DHT22;27566;50.930;5.328;2023-07-09T15:24:57;32.90;45.20
41884;DHT22;27566;50.930;5.328;2023-07-09T15:27:23;33.00;45.00
41884;DHT22;27566;50.930;5.328;2023-07-09T15:29:50;33.00;45.10
41884;DHT22;27566;50.930;5.328;2023-07-09T15:32:16;33.10;45.10
41884;DHT22;27566;50.930;5.328;2023-07-09T15:34:42;33.20;45.20
41884;DHT22;27566;50.930;5.328;2023-07-09T15:37:13;33.30;45.10
41884;DHT22;27566;50.930;5.328;2023-07-09T15:39:40;33.50;44.90
41884;DHT22;27566;50.930;5.328;2023-07-09T15:42:13;33.70;44.60
41884;DHT22;27566;50.930;5.328;2023-07-09T15:44:40;33.80;44.20
41884;DHT22;27566;50.930;5.328;2023-07-09T15:47:15;34.00;43.50
41884;DHT22;27566;50.930;5.328;2023-07-09T15:49:42;34.10;43.50
41884;DHT22;27566;50.930;5.328;2023-07-09T15:52:09;34.30;43.40
41884;DHT22;27566;50.930;5.328;2023-07-09T15:54:35;34.40;43.10
41884;DHT22;27566;50.930;5.328;2023-07-09T15:57:01;34.50;43.10
41884;DHT22;27566;50.930;5.328;2023-07-09T15:59:35;34.50;42.80
41884;DHT22;27566;50.930;5.328;2023-07-09T16:02:02;34.50;42.70
41884;DHT22;27566;50.930;5.328;2023-07-09T16:04:34;34.40;42.40
41884;DHT22;27566;50.930;5.328;2023-07-09T16:07:00;34.30;42.30
41884;DHT22;27566;50.930;5.328;2023-07-09T16:09:26;34.10;42.60
41884;DHT22;27566;50.930;5.328;2023-07-09T16:11:52;33.90;42.70
41884;DHT22;27566;50.930;5.328;2023-07-09T16:14:45;33.60;43.10
41884;DHT22;27566;50.930;5.328;2023-07-09T16:17:10;33.30;43.40
41884;DHT22;27566;50.930;5.328;2023-07-09T16:19:36;33.10;43.80
41884;DHT22;27566;50.930;5.328;2023-07-09T16:22:04;33.00;44.50
41884;DHT22;27566;50.930;5.328;2023-07-09T16:24:34;32.80;44.60
41884;DHT22;27566;50.930;5.328;2023-07-09T16:27:03;32.60;44.50